sensor_id;sensor_type;location;lat;lon;timestamp;P1;durP1;ratioP1;P2;durP2;ratioP2
13083;SDS011;6608;48.790;9.198;2023-04-24T00:00:32;148.43;;;57.43;;
13083;SDS011;6608;48.790;9.198;2023-04-24T00:02:58;147.53;;;57.00;;
13083;SDS011;6608;48.790;9.198;2023-04-24T00:05:24;147.57;;;57.10;;
13083;SDS011;6608;48.790;9.198;2023-04-24T00:07:52;147.70;;;57.03;;
13083;SDS011;6608;48.790;9.198;2023-04-24T00:10:19;147.00;;;57.40;;
13083;SDS011;6608;48.790;9.198;2023-04-24T00:12:46;147.80;;;57.33;;
13083;SDS011;6608;48.790;9.198;2023-04-24T00:15:12;149.53;;;57.60;;
13083;SDS011;6608;48.790;9.198;2023-04-24T00:17:38;148.90;;;57.30;;
13083;SDS011;6608;48.790;9.198;2023-04-24T00:20:05;147.67;;;57.23;;
13083;SDS011;6608;48.790;9.198;2023-04-24T00:22:32;147.67;;;57.33;;
13083;SDS011;6608;48.790;9.198;2023-04-24T00:25:00;149.30;;;57.47;;
13083;SDS011;6608;48.790;9.198;2023-04-24T00:27:26;148.00;;;57.37;;
13083;SDS011;6608;48.790;9.198;2023-04-24T00:29:52;150.40;;;57.40;;
13083;SDS011;6608;48.790;9.198;2023-04-24T00:32:19;151.97;;;57.50;;
13083;SDS011;6608;48.790;9.198;2023-04-24T00:34:45;150.50;;;57.10;;
13083;SDS011;6608;48.790;9.198;2023-04-24T00:37:12;149.20;;;57.83;;
13083;SDS011;6608;48.790;9.198;2023-04-24T00:39:38;149.83;;;57.50;;
13083;SDS011;6608;48.790;9.198;2023-04-24T00:42:06;149.17;;;57.70;;
13083;SDS011;6608;48.790;9.198;2023-04-24T00:44:32;151.73;;;58.70;;
13083;SDS011;6608;48.790;9.198;2023-04-24T00:46:59;147.63;;;57.17;;
13083;SDS011;6608;48.790;9.198;2023-04-24T00:49:25;148.93;;;57.67;;
13083;SDS011;6608;48.790;9.198;2023-04-24T00:51:52;152.33;;;56.90;;
13083;SDS011;6608;48.790;9.198;2023-04-24T00:54:18;149.60;;;57.53;;
13083;SDS011;6608;48.790;9.198;2023-04-24T00:56:45;150.87;;;57.30;;
13083;SDS011;6608;48.790;9.198;2023-04-24T00:59:13;149.33;;;57.47;;
13083;SDS011;6608;48.790;9.198;2023-04-24T01:01:41;147.83;;;57.17;;
13083;SDS011;6608;48.790;9.198;2023-04-24T01:04:09;151.57;;;57.90;;
13083;SDS011;6608;48.790;9.198;2023-04-24T01:06:35;151.00;;;58.20;;
13083;SDS011;6608;48.790;9.198;2023-04-24T01:09:04;148.73;;;57.50;;
13083;SDS011;6608;48.790;9.198;2023-04-24T01:11:30;148.37;;;57.23;;
13083;SDS011;6608;48.790;9.198;2023-04-24T01:13:57;148.27;;;57.50;;
13083;SDS011;6608;48.790;9.198;2023-04-24T01:16:25;148.23;;;57.40;;
13083;SDS011;6608;48.790;9.198;2023-04-24T01:18:51;148.77;;;57.70;;
13083;SDS011;6608;48.790;9.198;2023-04-24T01:21:18;147.57;;;57.20;;
13083;SDS011;6608;48.790;9.198;2023-04-24T01:23:47;148.40;;;57.33;;
13083;SDS011;6608;48.790;9.198;2023-04-24T01:26:16;149.40;;;57.50;;
13083;SDS011;6608;48.790;9.198;2023-04-24T01:28:45;149.10;;;57.03;;
13083;SDS011;6608;48.790;9.198;2023-04-24T01:31:11;148.47;;;57.10;;
13083;SDS011;6608;48.790;9.198;2023-04-24T01:33:37;150.50;;;57.40;;
13083;SDS011;6608;48.790;9.198;2023-04-24T01:36:04;149.20;;;57.53;;
13083;SDS011;6608;48.790;9.198;2023-04-24T01:38:30;150.20;;;57.30;;
13083;SDS011;6608;48.790;9.198;2023-04-24T01:40:58;150.03;;;57.70;;
13083;SDS011;6608;48.790;9.198;2023-04-24T01:43:24;151.13;;;57.57;;
13083;SDS011;6608;48.790;9.198;2023-04-24T01:45:51;150.73;;;57.50;;
13083;SDS011;6608;48.790;9.198;2023-04-24T01:48:17;148.73;;;57.40;;
13083;SDS011;6608;48.790;9.198;2023-04-24T01:50:44;152.17;;;58.00;;
13083;SDS011;6608;48.790;9.198;2023-04-24T01:53:10;149.30;;;57.83;;
13083;SDS011;6608;48.790;9.198;2023-04-24T01:55:36;151.60;;;57.50;;
13083;SDS011;6608;48.790;9.198;2023-04-24T01:58:04;147.63;;;57.10;;
13083;SDS011;6608;48.790;9.198;2023-04-24T02:00:31;148.93;;;57.87;;
13083;SDS011;6608;48.790;9.198;2023-04-24T02:02:57;147.87;;;57.33;;
13083;SDS011;6608;48.790;9.198;2023-04-24T02:05:23;148.33;;;57.60;;
13083;SDS011;6608;48.790;9.198;2023-04-24T02:07:50;147.67;;;57.30;;
13083;SDS011;6608;48.790;9.198;2023-04-24T02:10:16;150.57;;;57.90;;
13083;SDS011;6608;48.790;9.198;2023-04-24T02:12:43;148.60;;;57.47;;
13083;SDS011;6608;48.790;9.198;2023-04-24T02:15:11;148.60;;;57.40;;
13083;SDS011;6608;48.790;9.198;2023-04-24T02:17:37;147.50;;;57.40;;
13083;SDS011;6608;48.790;9.198;2023-04-24T02:20:05;151.40;;;57.67;;
13083;SDS011;6608;48.790;9.198;2023-04-24T02:22:31;148.07;;;57.43;;
13083;SDS011;6608;48.790;9.198;2023-04-24T02:24:57;148.83;;;57.97;;
13083;SDS011;6608;48.790;9.198;2023-04-24T02:27:24;152.50;;;58.27;;
13083;SDS011;6608;48.790;9.198;2023-04-24T02:29:51;148.63;;;57.30;;
13083;SDS011;6608;48.790;9.198;2023-04-24T02:32:18;147.37;;;57.30;;
13083;SDS011;6608;48.790;9.198;2023-04-24T02:34:45;149.30;;;57.13;;
13083;SDS011;6608;48.790;9.198;2023-04-24T02:37:11;147.73;;;57.17;;
13083;SDS011;6608;48.790;9.198;2023-04-24T02:39:37;148.20;;;56.90;;
13083;SDS011;6608;48.790;9.198;2023-04-24T02:42:04;146.90;;;57.03;;
13083;SDS011;6608;48.790;9.198;2023-04-24T02:44:30;148.27;;;57.10;;
13083;SDS011;6608;48.790;9.198;2023-04-24T02:46:57;147.13;;;57.13;;
13083;SDS011;6608;48.790;9.198;2023-04-24T02:49:24;147.70;;;57.20;;
13083;SDS011;6608;48.790;9.198;2023-04-24T02:51:51;148.10;;;57.60;;
13083;SDS011;6608;48.790;9.198;2023-04-24T02:54:17;146.87;;;57.23;;
13083;SDS011;6608;48.790;9.198;2023-04-24T02:56:44;146.47;;;56.80;;
13083;SDS011;6608;48.790;9.198;2023-04-24T02:59:10;147.30;;;57.40;;
13083;SDS011;6608;48.790;9.198;2023-04-24T03:01:36;149.27;;;57.20;;
13083;SDS011;6608;48.790;9.198;2023-04-24T03:04:03;147.43;;;57.30;;
13083;SDS011;6608;48.790;9.198;2023-04-24T03:06:31;146.87;;;57.27;;
13083;SDS011;6608;48.790;9.198;2023-04-24T03:08:57;148.73;;;57.23;;
13083;SDS011;6608;48.790;9.198;2023-04-24T03:11:24;145.80;;;56.67;;
13083;SDS011;6608;48.790;9.198;2023-04-24T03:13:50;147.17;;;56.83;;
13083;SDS011;6608;48.790;9.198;2023-04-24T03:16:17;147.93;;;57.20;;
13083;SDS011;6608;48.790;9.198;2023-04-24T03:18:43;148.30;;;56.87;;
13083;SDS011;6608;48.790;9.198;2023-04-24T03:21:09;145.63;;;56.63;;
13083;SDS011;6608;48.790;9.198;2023-04-24T03:23:37;146.77;;;56.70;;
13083;SDS011;6608;48.790;9.198;2023-04-24T03:26:04;147.03;;;56.77;;
13083;SDS011;6608;48.790;9.198;2023-04-24T03:28:30;145.37;;;56.50;;
13083;SDS011;6608;48.790;9.198;2023-04-24T03:30:56;146.43;;;57.07;;
13083;SDS011;6608;48.790;9.198;2023-04-24T03:33:23;147.03;;;57.27;;
13083;SDS011;6608;48.790;9.198;2023-04-24T03:35:49;147.87;;;56.87;;
13083;SDS011;6608;48.790;9.198;2023-04-24T03:38:15;146.70;;;56.63;;
13083;SDS011;6608;48.790;9.198;2023-04-24T03:40:43;147.17;;;56.60;;
13083;SDS011;6608;48.790;9.198;2023-04-24T03:43:10;146.73;;;56.57;;
13083;SDS011;6608;48.790;9.198;2023-04-24T03:45:36;149.03;;;56.80;;
13083;SDS011;6608;48.790;9.198;2023-04-24T03:48:03;146.60;;;56.80;;
13083;SDS011;6608;48.790;9.198;2023-04-24T03:50:29;147.13;;;57.03;;
13083;SDS011;6608;48.790;9.198;2023-04-24T03:52:56;147.00;;;57.00;;
13083;SDS011;6608;48.790;9.198;2023-04-24T03:55:22;148.00;;;57.13;;
13083;SDS011;6608;48.790;9.198;2023-04-24T03:57:50;145.97;;;56.50;;
13083;SDS011;6608;48.790;9.198;2023-04-24T04:00:17;146.20;;;56.40;;
13083;SDS011;6608;48.790;9.198;2023-04-24T04:02:43;145.90;;;56.73;;
13083;SDS011;6608;48.790;9.198;2023-04-24T04:05:10;146.70;;;57.07;;
13083;SDS011;6608;48.790;9.198;2023-04-24T04:07:36;146.10;;;56.70;;
13083;SDS011;6608;48.790;9.198;2023-04-24T04:10:03;145.27;;;56.40;;
13083;SDS011;6608;48.790;9.198;2023-04-24T04:12:29;146.70;;;56.80;;
13083;SDS011;6608;48.790;9.198;2023-04-24T04:14:57;146.97;;;56.63;;
13083;SDS011;6608;48.790;9.198;2023-04-24T04:17:23;147.90;;;57.30;;
13083;SDS011;6608;48.790;9.198;2023-04-24T04:19:50;147.50;;;56.90;;
13083;SDS011;6608;48.790;9.198;2023-04-24T04:22:16;145.77;;;56.73;;
13083;SDS011;6608;48.790;9.198;2023-04-24T04:24:43;146.27;;;56.67;;
13083;SDS011;6608;48.790;9.198;2023-04-24T04:27:09;145.63;;;56.60;;
13083;SDS011;6608;48.790;9.198;2023-04-24T04:29:35;144.87;;;56.40;;
13083;SDS011;6608;48.790;9.198;2023-04-24T04:32:03;147.57;;;57.30;;
13083;SDS011;6608;48.790;9.198;2023-04-24T04:34:30;147.27;;;57.80;;
13083;SDS011;6608;48.790;9.198;2023-04-24T04:36:56;145.40;;;56.53;;
13083;SDS011;6608;48.790;9.198;2023-04-24T04:39:24;146.17;;;57.00;;
13083;SDS011;6608;48.790;9.198;2023-04-24T04:41:51;145.13;;;56.77;;
13083;SDS011;6608;48.790;9.198;2023-04-24T04:44:17;146.10;;;57.07;;
13083;SDS011;6608;48.790;9.198;2023-04-24T04:46:44;148.50;;;56.53;;
13083;SDS011;6608;48.790;9.198;2023-04-24T04:49:12;144.93;;;56.90;;
13083;SDS011;6608;48.790;9.198;2023-04-24T04:51:41;144.63;;;56.83;;
13083;SDS011;6608;48.790;9.198;2023-04-24T04:54:08;144.37;;;56.30;;
13083;SDS011;6608;48.790;9.198;2023-04-24T04:56:34;144.57;;;56.70;;
13083;SDS011;6608;48.790;9.198;2023-04-24T04:59:00;146.10;;;57.27;;
13083;SDS011;6608;48.790;9.198;2023-04-24T05:01:27;144.43;;;56.60;;
13083;SDS011;6608;48.790;9.198;2023-04-24T05:03:53;147.03;;;57.33;;
13083;SDS011;6608;48.790;9.198;2023-04-24T05:06:21;145.73;;;57.00;;
13083;SDS011;6608;48.790;9.198;2023-04-24T05:08:47;145.63;;;56.70;;
13083;SDS011;6608;48.790;9.198;2023-04-24T05:11:14;144.37;;;56.47;;
13083;SDS011;6608;48.790;9.198;2023-04-24T05:13:40;145.50;;;56.77;;
13083;SDS011;6608;48.790;9.198;2023-04-24T05:16:07;148.93;;;59.40;;
13083;SDS011;6608;48.790;9.198;2023-04-24T05:18:33;155.53;;;62.90;;
13083;SDS011;6608;48.790;9.198;2023-04-24T05:20:59;149.10;;;59.10;;
13083;SDS011;6608;48.790;9.198;2023-04-24T05:23:27;142.90;;;56.20;;
13083;SDS011;6608;48.790;9.198;2023-04-24T05:25:54;144.63;;;56.87;;
13083;SDS011;6608;48.790;9.198;2023-04-24T05:28:20;148.00;;;57.97;;
13083;SDS011;6608;48.790;9.198;2023-04-24T05:30:46;146.23;;;56.47;;
13083;SDS011;6608;48.790;9.198;2023-04-24T05:33:13;146.17;;;56.80;;
13083;SDS011;6608;48.790;9.198;2023-04-24T05:35:40;146.63;;;58.13;;
13083;SDS011;6608;48.790;9.198;2023-04-24T05:38:10;145.43;;;57.90;;
13083;SDS011;6608;48.790;9.198;2023-04-24T05:40:38;145.93;;;57.43;;
13083;SDS011;6608;48.790;9.198;2023-04-24T05:43:04;145.50;;;57.20;;
13083;SDS011;6608;48.790;9.198;2023-04-24T05:45:31;144.87;;;57.20;;
13083;SDS011;6608;48.790;9.198;2023-04-24T05:47:57;146.43;;;57.40;;
13083;SDS011;6608;48.790;9.198;2023-04-24T05:50:23;146.87;;;57.27;;
13083;SDS011;6608;48.790;9.198;2023-04-24T05:52:50;143.93;;;56.80;;
13083;SDS011;6608;48.790;9.198;2023-04-24T05:55:16;147.83;;;58.13;;
13083;SDS011;6608;48.790;9.198;2023-04-24T05:57:44;145.80;;;57.40;;
13083;SDS011;6608;48.790;9.198;2023-04-24T06:00:12;146.40;;;58.33;;
13083;SDS011;6608;48.790;9.198;2023-04-24T06:02:39;145.20;;;57.43;;
13083;SDS011;6608;48.790;9.198;2023-04-24T06:05:05;147.60;;;57.73;;
13083;SDS011;6608;48.790;9.198;2023-04-24T06:07:33;146.83;;;57.40;;
13083;SDS011;6608;48.790;9.198;2023-04-24T06:09:59;148.03;;;58.77;;
13083;SDS011;6608;48.790;9.198;2023-04-24T06:12:25;148.43;;;58.07;;
13083;SDS011;6608;48.790;9.198;2023-04-24T06:14:54;146.43;;;57.30;;
13083;SDS011;6608;48.790;9.198;2023-04-24T06:17:21;146.83;;;58.00;;
13083;SDS011;6608;48.790;9.198;2023-04-24T06:19:47;146.37;;;58.23;;
13083;SDS011;6608;48.790;9.198;2023-04-24T06:22:14;146.63;;;57.63;;
13083;SDS011;6608;48.790;9.198;2023-04-24T06:24:40;151.57;;;59.63;;
13083;SDS011;6608;48.790;9.198;2023-04-24T06:27:06;150.80;;;60.43;;
13083;SDS011;6608;48.790;9.198;2023-04-24T06:29:33;150.13;;;59.13;;
13083;SDS011;6608;48.790;9.198;2023-04-24T06:32:01;158.77;;;63.53;;
13083;SDS011;6608;48.790;9.198;2023-04-24T06:34:27;156.97;;;61.03;;
13083;SDS011;6608;48.790;9.198;2023-04-24T06:36:55;159.37;;;61.53;;
13083;SDS011;6608;48.790;9.198;2023-04-24T06:39:22;168.67;;;67.17;;
13083;SDS011;6608;48.790;9.198;2023-04-24T06:41:48;162.30;;;62.40;;
13083;SDS011;6608;48.790;9.198;2023-04-24T06:44:15;162.07;;;62.23;;
13083;SDS011;6608;48.790;9.198;2023-04-24T06:46:41;162.27;;;61.60;;
13083;SDS011;6608;48.790;9.198;2023-04-24T06:49:09;166.57;;;65.77;;
13083;SDS011;6608;48.790;9.198;2023-04-24T06:51:36;161.37;;;62.50;;
13083;SDS011;6608;48.790;9.198;2023-04-24T06:54:02;161.87;;;61.33;;
13083;SDS011;6608;48.790;9.198;2023-04-24T06:56:29;164.57;;;64.07;;
13083;SDS011;6608;48.790;9.198;2023-04-24T06:58:55;162.43;;;63.40;;
13083;SDS011;6608;48.790;9.198;2023-04-24T07:01:22;166.03;;;63.40;;
13083;SDS011;6608;48.790;9.198;2023-04-24T07:03:48;167.90;;;66.47;;
13083;SDS011;6608;48.790;9.198;2023-04-24T07:06:16;162.83;;;61.97;;
13083;SDS011;6608;48.790;9.198;2023-04-24T07:08:43;162.10;;;61.33;;
13083;SDS011;6608;48.790;9.198;2023-04-24T07:11:10;162.17;;;62.90;;
13083;SDS011;6608;48.790;9.198;2023-04-24T07:13:36;163.13;;;61.23;;
13083;SDS011;6608;48.790;9.198;2023-04-24T07:16:06;160.40;;;63.23;;
13083;SDS011;6608;48.790;9.198;2023-04-24T07:18:33;163.90;;;64.97;;
13083;SDS011;6608;48.790;9.198;2023-04-24T07:20:59;157.73;;;61.10;;
13083;SDS011;6608;48.790;9.198;2023-04-24T07:23:27;157.67;;;60.27;;
13083;SDS011;6608;48.790;9.198;2023-04-24T07:25:54;159.00;;;60.80;;
13083;SDS011;6608;48.790;9.198;2023-04-24T07:28:21;155.23;;;61.60;;
13083;SDS011;6608;48.790;9.198;2023-04-24T07:30:47;158.87;;;63.20;;
13083;SDS011;6608;48.790;9.198;2023-04-24T07:33:14;157.00;;;60.17;;
13083;SDS011;6608;48.790;9.198;2023-04-24T07:35:41;154.13;;;60.03;;
13083;SDS011;6608;48.790;9.198;2023-04-24T07:38:07;154.57;;;60.50;;
13083;SDS011;6608;48.790;9.198;2023-04-24T07:40:35;155.67;;;60.63;;
13083;SDS011;6608;48.790;9.198;2023-04-24T07:43:01;160.73;;;62.83;;
13083;SDS011;6608;48.790;9.198;2023-04-24T07:45:27;160.00;;;61.20;;
13083;SDS011;6608;48.790;9.198;2023-04-24T07:47:54;160.93;;;62.13;;
13083;SDS011;6608;48.790;9.198;2023-04-24T07:50:20;183.57;;;75.83;;
13083;SDS011;6608;48.790;9.198;2023-04-24T07:52:47;162.33;;;63.07;;
13083;SDS011;6608;48.790;9.198;2023-04-24T07:55:13;163.43;;;62.73;;
13083;SDS011;6608;48.790;9.198;2023-04-24T07:57:41;161.70;;;62.33;;
13083;SDS011;6608;48.790;9.198;2023-04-24T08:00:08;160.03;;;61.47;;
13083;SDS011;6608;48.790;9.198;2023-04-24T08:02:35;159.83;;;62.10;;
13083;SDS011;6608;48.790;9.198;2023-04-24T08:05:01;163.27;;;62.00;;
13083;SDS011;6608;48.790;9.198;2023-04-24T08:07:28;161.80;;;63.47;;
13083;SDS011;6608;48.790;9.198;2023-04-24T08:09:54;158.03;;;60.93;;
13083;SDS011;6608;48.790;9.198;2023-04-24T08:12:21;161.00;;;61.00;;
13083;SDS011;6608;48.790;9.198;2023-04-24T08:14:49;156.93;;;60.90;;
13083;SDS011;6608;48.790;9.198;2023-04-24T08:17:16;157.80;;;60.23;;
13083;SDS011;6608;48.790;9.198;2023-04-24T08:19:42;157.63;;;61.40;;
13083;SDS011;6608;48.790;9.198;2023-04-24T08:22:13;158.13;;;61.23;;
13083;SDS011;6608;48.790;9.198;2023-04-24T08:24:39;156.67;;;61.20;;
13083;SDS011;6608;48.790;9.198;2023-04-24T08:27:05;156.73;;;60.33;;
13083;SDS011;6608;48.790;9.198;2023-04-24T08:29:32;155.73;;;60.47;;
13083;SDS011;6608;48.790;9.198;2023-04-24T08:32:00;157.90;;;60.50;;
13083;SDS011;6608;48.790;9.198;2023-04-24T08:34:26;159.83;;;62.43;;
13083;SDS011;6608;48.790;9.198;2023-04-24T08:36:52;160.27;;;62.10;;
13083;SDS011;6608;48.790;9.198;2023-04-24T08:39:19;160.63;;;60.53;;
13083;SDS011;6608;48.790;9.198;2023-04-24T08:41:46;158.60;;;59.80;;
13083;SDS011;6608;48.790;9.198;2023-04-24T08:44:14;158.00;;;61.77;;
13083;SDS011;6608;48.790;9.198;2023-04-24T08:46:41;154.53;;;59.43;;
13083;SDS011;6608;48.790;9.198;2023-04-24T08:49:10;156.07;;;60.13;;
13083;SDS011;6608;48.790;9.198;2023-04-24T08:51:37;153.23;;;59.27;;
13083;SDS011;6608;48.790;9.198;2023-04-24T08:54:04;153.70;;;59.77;;
13083;SDS011;6608;48.790;9.198;2023-04-24T08:56:30;152.37;;;59.20;;
13083;SDS011;6608;48.790;9.198;2023-04-24T08:58:59;152.43;;;59.10;;
13083;SDS011;6608;48.790;9.198;2023-04-24T09:01:25;152.93;;;59.33;;
13083;SDS011;6608;48.790;9.198;2023-04-24T09:03:53;154.03;;;60.53;;
13083;SDS011;6608;48.790;9.198;2023-04-24T09:06:22;155.53;;;60.47;;
13083;SDS011;6608;48.790;9.198;2023-04-24T09:08:50;168.83;;;68.97;;
13083;SDS011;6608;48.790;9.198;2023-04-24T09:11:18;154.40;;;60.10;;
13083;SDS011;6608;48.790;9.198;2023-04-24T09:13:45;157.80;;;61.67;;
13083;SDS011;6608;48.790;9.198;2023-04-24T09:16:12;155.37;;;60.23;;
13083;SDS011;6608;48.790;9.198;2023-04-24T09:18:39;158.47;;;59.67;;
13083;SDS011;6608;48.790;9.198;2023-04-24T09:21:06;154.10;;;60.57;;
13083;SDS011;6608;48.790;9.198;2023-04-24T09:23:34;152.73;;;59.63;;
13083;SDS011;6608;48.790;9.198;2023-04-24T09:26:01;153.93;;;59.93;;
13083;SDS011;6608;48.790;9.198;2023-04-24T09:28:30;155.30;;;61.50;;
13083;SDS011;6608;48.790;9.198;2023-04-24T09:31:06;153.43;;;60.37;;
13083;SDS011;6608;48.790;9.198;2023-04-24T09:33:33;149.77;;;58.23;;
13083;SDS011;6608;48.790;9.198;2023-04-24T09:35:59;149.63;;;58.70;;
13083;SDS011;6608;48.790;9.198;2023-04-24T09:38:32;150.40;;;58.73;;
13083;SDS011;6608;48.790;9.198;2023-04-24T09:41:01;149.97;;;58.73;;
13083;SDS011;6608;48.790;9.198;2023-04-24T09:43:28;151.87;;;59.83;;
13083;SDS011;6608;48.790;9.198;2023-04-24T09:45:55;151.60;;;59.30;;
13083;SDS011;6608;48.790;9.198;2023-04-24T09:48:29;159.10;;;63.13;;
13083;SDS011;6608;48.790;9.198;2023-04-24T09:50:55;168.57;;;66.45;;
13083;SDS011;6608;48.790;9.198;2023-04-24T09:53:23;156.93;;;60.60;;
13083;SDS011;6608;48.790;9.198;2023-04-24T09:55:50;161.07;;;63.57;;
13083;SDS011;6608;48.790;9.198;2023-04-24T09:58:19;157.27;;;61.57;;
13083;SDS011;6608;48.790;9.198;2023-04-24T10:00:50;153.00;;;59.57;;
13083;SDS011;6608;48.790;9.198;2023-04-24T10:03:19;153.70;;;59.37;;
13083;SDS011;6608;48.790;9.198;2023-04-24T10:05:45;153.57;;;59.93;;
13083;SDS011;6608;48.790;9.198;2023-04-24T10:08:12;152.67;;;59.57;;
13083;SDS011;6608;48.790;9.198;2023-04-24T10:10:39;157.70;;;60.90;;
13083;SDS011;6608;48.790;9.198;2023-04-24T10:13:07;154.90;;;60.93;;
13083;SDS011;6608;48.790;9.198;2023-04-24T10:15:34;162.10;;;59.87;;
13083;SDS011;6608;48.790;9.198;2023-04-24T10:18:01;155.67;;;61.10;;
13083;SDS011;6608;48.790;9.198;2023-04-24T10:20:28;161.53;;;64.03;;
13083;SDS011;6608;48.790;9.198;2023-04-24T10:22:55;160.13;;;61.77;;
13083;SDS011;6608;48.790;9.198;2023-04-24T10:25:22;163.23;;;62.23;;
13083;SDS011;6608;48.790;9.198;2023-04-24T10:27:49;164.63;;;62.73;;
13083;SDS011;6608;48.790;9.198;2023-04-24T10:30:16;164.67;;;63.27;;
13083;SDS011;6608;48.790;9.198;2023-04-24T10:32:44;166.33;;;62.97;;
13083;SDS011;6608;48.790;9.198;2023-04-24T10:35:12;164.20;;;62.47;;
13083;SDS011;6608;48.790;9.198;2023-04-24T10:37:39;163.17;;;62.10;;
13083;SDS011;6608;48.790;9.198;2023-04-24T10:40:07;164.80;;;63.80;;
13083;SDS011;6608;48.790;9.198;2023-04-24T10:42:34;170.00;;;68.17;;
13083;SDS011;6608;48.790;9.198;2023-04-24T10:45:04;162.27;;;62.23;;
13083;SDS011;6608;48.790;9.198;2023-04-24T10:47:38;157.73;;;60.57;;
13083;SDS011;6608;48.790;9.198;2023-04-24T10:50:08;156.37;;;60.40;;
13083;SDS011;6608;48.790;9.198;2023-04-24T10:52:45;155.73;;;60.03;;
13083;SDS011;6608;48.790;9.198;2023-04-24T10:55:12;156.77;;;59.77;;
13083;SDS011;6608;48.790;9.198;2023-04-24T10:57:38;155.37;;;60.60;;
13083;SDS011;6608;48.790;9.198;2023-04-24T11:00:15;155.00;;;59.57;;
13083;SDS011;6608;48.790;9.198;2023-04-24T11:02:41;157.97;;;60.27;;
13083;SDS011;6608;48.790;9.198;2023-04-24T11:05:15;155.03;;;60.33;;
13083;SDS011;6608;48.790;9.198;2023-04-24T11:10:26;155.53;;;60.33;;
13083;SDS011;6608;48.790;9.198;2023-04-24T11:12:53;154.70;;;60.27;;
13083;SDS011;6608;48.790;9.198;2023-04-24T11:15:19;154.07;;;59.57;;
13083;SDS011;6608;48.790;9.198;2023-04-24T11:17:46;154.67;;;60.60;;
13083;SDS011;6608;48.790;9.198;2023-04-24T11:20:16;154.77;;;60.17;;
13083;SDS011;6608;48.790;9.198;2023-04-24T11:22:44;155.37;;;60.30;;
13083;SDS011;6608;48.790;9.198;2023-04-24T11:25:10;154.80;;;60.77;;
13083;SDS011;6608;48.790;9.198;2023-04-24T11:27:38;156.87;;;60.03;;
13083;SDS011;6608;48.790;9.198;2023-04-24T11:30:05;156.00;;;61.27;;
13083;SDS011;6608;48.790;9.198;2023-04-24T11:32:34;156.10;;;60.57;;
13083;SDS011;6608;48.790;9.198;2023-04-24T11:35:01;157.60;;;61.00;;
13083;SDS011;6608;48.790;9.198;2023-04-24T11:37:29;158.00;;;60.50;;
13083;SDS011;6608;48.790;9.198;2023-04-24T11:40:00;158.40;;;61.23;;
13083;SDS011;6608;48.790;9.198;2023-04-24T11:42:27;156.93;;;60.47;;
13083;SDS011;6608;48.790;9.198;2023-04-24T11:44:54;158.97;;;61.53;;
13083;SDS011;6608;48.790;9.198;2023-04-24T11:47:27;161.13;;;63.40;;
13083;SDS011;6608;48.790;9.198;2023-04-24T11:49:53;157.70;;;61.30;;
13083;SDS011;6608;48.790;9.198;2023-04-24T11:52:20;158.17;;;61.30;;
13083;SDS011;6608;48.790;9.198;2023-04-24T11:54:47;157.37;;;61.17;;
13083;SDS011;6608;48.790;9.198;2023-04-24T11:57:15;160.40;;;61.90;;
13083;SDS011;6608;48.790;9.198;2023-04-24T11:59:42;155.93;;;62.10;;
13083;SDS011;6608;48.790;9.198;2023-04-24T12:02:08;151.70;;;59.00;;
13083;SDS011;6608;48.790;9.198;2023-04-24T12:04:38;162.00;;;62.80;;
13083;SDS011;6608;48.790;9.198;2023-04-24T12:07:05;155.87;;;61.83;;
13083;SDS011;6608;48.790;9.198;2023-04-24T12:12:18;159.43;;;63.33;;
13083;SDS011;6608;48.790;9.198;2023-04-24T12:14:47;162.53;;;64.47;;
13083;SDS011;6608;48.790;9.198;2023-04-24T12:17:14;159.17;;;61.97;;
13083;SDS011;6608;48.790;9.198;2023-04-24T12:19:44;158.57;;;62.30;;
13083;SDS011;6608;48.790;9.198;2023-04-24T12:22:11;158.53;;;62.23;;
13083;SDS011;6608;48.790;9.198;2023-04-24T12:27:20;154.73;;;60.50;;
13083;SDS011;6608;48.790;9.198;2023-04-24T12:29:51;191.87;;;82.77;;
13083;SDS011;6608;48.790;9.198;2023-04-24T12:32:17;158.27;;;62.57;;
13083;SDS011;6608;48.790;9.198;2023-04-24T12:34:44;158.30;;;63.17;;
13083;SDS011;6608;48.790;9.198;2023-04-24T12:37:10;160.00;;;62.60;;
13083;SDS011;6608;48.790;9.198;2023-04-24T12:39:37;158.80;;;64.10;;
13083;SDS011;6608;48.790;9.198;2023-04-24T12:42:03;155.70;;;62.13;;
13083;SDS011;6608;48.790;9.198;2023-04-24T12:44:31;156.20;;;61.53;;
13083;SDS011;6608;48.790;9.198;2023-04-24T12:46:59;156.17;;;62.17;;
13083;SDS011;6608;48.790;9.198;2023-04-24T12:49:26;158.53;;;63.50;;
13083;SDS011;6608;48.790;9.198;2023-04-24T12:51:53;158.40;;;61.73;;
13083;SDS011;6608;48.790;9.198;2023-04-24T12:54:19;156.93;;;62.07;;
13083;SDS011;6608;48.790;9.198;2023-04-24T12:56:45;160.87;;;64.37;;
13083;SDS011;6608;48.790;9.198;2023-04-24T12:59:12;158.73;;;61.07;;
13083;SDS011;6608;48.790;9.198;2023-04-24T13:01:40;157.37;;;63.20;;
13083;SDS011;6608;48.790;9.198;2023-04-24T13:04:06;155.50;;;61.50;;
13083;SDS011;6608;48.790;9.198;2023-04-24T13:06:32;155.60;;;61.93;;
13083;SDS011;6608;48.790;9.198;2023-04-24T13:08:59;157.47;;;63.17;;
13083;SDS011;6608;48.790;9.198;2023-04-24T13:11:25;157.30;;;62.63;;
13083;SDS011;6608;48.790;9.198;2023-04-24T13:13:52;152.83;;;59.97;;
13083;SDS011;6608;48.790;9.198;2023-04-24T13:16:18;155.77;;;62.03;;
13083;SDS011;6608;48.790;9.198;2023-04-24T13:18:46;156.00;;;62.80;;
13083;SDS011;6608;48.790;9.198;2023-04-24T13:21:12;154.17;;;61.17;;
13083;SDS011;6608;48.790;9.198;2023-04-24T13:23:39;166.88;;;67.07;;
13083;SDS011;6608;48.790;9.198;2023-04-24T13:26:06;160.10;;;61.77;;
13083;SDS011;6608;48.790;9.198;2023-04-24T13:28:32;155.13;;;61.50;;
13083;SDS011;6608;48.790;9.198;2023-04-24T13:30:59;157.67;;;63.13;;
13083;SDS011;6608;48.790;9.198;2023-04-24T13:33:25;162.03;;;66.03;;
13083;SDS011;6608;48.790;9.198;2023-04-24T13:35:53;157.43;;;63.07;;
13083;SDS011;6608;48.790;9.198;2023-04-24T13:38:19;157.90;;;61.90;;
13083;SDS011;6608;48.790;9.198;2023-04-24T13:40:46;158.13;;;62.53;;
13083;SDS011;6608;48.790;9.198;2023-04-24T13:43:12;158.70;;;61.90;;
13083;SDS011;6608;48.790;9.198;2023-04-24T13:45:39;154.23;;;60.63;;
13083;SDS011;6608;48.790;9.198;2023-04-24T13:48:05;159.07;;;61.37;;
13083;SDS011;6608;48.790;9.198;2023-04-24T13:50:33;158.57;;;63.67;;
13083;SDS011;6608;48.790;9.198;2023-04-24T13:53:01;155.70;;;61.87;;
13083;SDS011;6608;48.790;9.198;2023-04-24T13:55:28;158.10;;;61.70;;
13083;SDS011;6608;48.790;9.198;2023-04-24T13:57:54;160.27;;;62.47;;
13083;SDS011;6608;48.790;9.198;2023-04-24T14:00:21;155.50;;;61.90;;
13083;SDS011;6608;48.790;9.198;2023-04-24T14:02:47;153.27;;;61.37;;
13083;SDS011;6608;48.790;9.198;2023-04-24T14:05:14;154.13;;;61.33;;
13083;SDS011;6608;48.790;9.198;2023-04-24T14:07:41;152.93;;;60.87;;
13083;SDS011;6608;48.790;9.198;2023-04-24T14:10:09;155.67;;;62.27;;
13083;SDS011;6608;48.790;9.198;2023-04-24T14:12:36;154.70;;;62.40;;
13083;SDS011;6608;48.790;9.198;2023-04-24T14:15:02;156.13;;;61.47;;
13083;SDS011;6608;48.790;9.198;2023-04-24T14:17:29;153.43;;;61.20;;
13083;SDS011;6608;48.790;9.198;2023-04-24T14:19:56;153.03;;;61.17;;
13083;SDS011;6608;48.790;9.198;2023-04-24T14:22:25;154.27;;;60.73;;
13083;SDS011;6608;48.790;9.198;2023-04-24T14:24:51;155.43;;;61.90;;
13083;SDS011;6608;48.790;9.198;2023-04-24T14:27:19;154.67;;;61.50;;